Time;durP1;ratioP1;P1;durP2;ratioP2;P2;SDS_P1;SDS_P2;PMS_P1;PMS_P2;Temp;Humidity;BMP_temperature;BMP_pressure;BME280_temperature;BME280_humidity;BME280_pressure;Samples;Min_cycle;Max_cycle;Signal;HPM_P1;HPM_P2
2021/04/07 00:01:14;;;;;;;16.07;10.63;;;-0.10;99.90;;;;;;5011816;28;20176;-64
2021/04/07 00:03:40;;;;;;;15.67;10.57;;;-0.10;99.90;;;;;;5012156;28;20661;-64
2021/04/07 00:06:05;;;;;;;23.37;11.27;;;-0.10;99.90;;;;;;5011966;28;20323;-64
2021/04/07 00:08:32;;;;;;;14.60;9.93;;;-0.10;99.90;;;;;;5012223;28;20229;-64
2021/04/07 00:10:57;;;;;;;17.93;10.13;;;-0.10;99.90;;;;;;5011683;28;20202;-64
2021/04/07 00:13:23;;;;;;;15.20;8.67;;;-0.20;99.90;;;;;;5011945;28;20741;-64
2021/04/07 00:15:49;;;;;;;18.30;11.03;;;-0.20;99.90;;;;;;5011677;28;20591;-64
2021/04/07 00:18:15;;;;;;;15.43;9.90;;;-0.20;99.90;;;;;;5012415;28;20192;-64
2021/04/07 00:20:40;;;;;;;11.97;7.80;;;-0.20;99.90;;;;;;5011398;28;20271;-64
2021/04/07 00:23:07;;;;;;;20.03;10.70;;;-0.20;99.90;;;;;;5012579;28;20180;-64
2021/04/07 00:25:33;;;;;;;20.20;8.73;;;-0.10;99.90;;;;;;5011715;28;20526;-64
2021/04/07 00:28:05;;;;;;;8.70;6.37;;;-0.10;99.90;;;;;;5011841;28;20223;-64
2021/04/07 00:30:35;;;;;;;18.57;9.27;;;-0.10;99.90;;;;;;5011440;28;20176;-64
2021/04/07 00:33:01;;;;;;;17.77;8.47;;;-0.10;99.90;;;;;;5011791;28;20579;-64
2021/04/07 00:35:27;;;;;;;16.70;8.20;;;-0.20;99.90;;;;;;5011853;28;20184;-64
2021/04/07 00:37:53;;;;;;;16.03;7.43;;;-0.20;99.90;;;;;;5011617;28;20164;-64
2021/04/07 00:40:19;;;;;;;13.40;7.77;;;-0.20;99.90;;;;;;5011590;28;20215;-64
2021/04/07 00:42:47;;;;;;;10.80;6.50;;;-0.30;99.90;;;;;;5011782;28;20528;-64
2021/04/07 00:45:14;;;;;;;13.87;7.97;;;-0.30;99.90;;;;;;5011411;28;20203;-64
2021/04/07 00:47:39;;;;;;;6.00;5.40;;;-0.30;99.90;;;;;;5011550;28;20176;-64
2021/04/07 00:50:07;;;;;;;11.93;7.43;;;-0.30;99.90;;;;;;5011254;28;20175;-64
2021/04/07 00:52:32;;;;;;;10.20;7.23;;;-0.30;99.90;;;;;;5011757;28;20250;-64
2021/04/07 00:54:59;;;;;;;10.20;7.27;;;-0.30;99.90;;;;;;5011294;28;20681;-64
2021/04/07 00:57:25;;;;;;;8.53;6.73;;;-0.20;99.90;;;;;;5011648;28;20511;-64
2021/04/07 00:59:52;;;;;;;17.37;8.63;;;-0.20;99.90;;;;;;5011222;28;20195;-64
2021/04/07 01:02:18;;;;;;;12.40;7.57;;;-0.20;99.90;;;;;;5010964;28;20187;-64
2021/04/07 01:04:45;;;;;;;15.00;7.20;;;-0.20;99.90;;;;;;5011145;28;20576;-64
2021/04/07 01:07:12;;;;;;;7.53;5.70;;;-0.20;99.90;;;;;;5011619;28;20172;-64
2021/04/07 01:09:38;;;;;;;18.87;6.73;;;-0.30;99.90;;;;;;5011148;28;20235;-64
2021/04/07 01:12:05;;;;;;;11.13;5.87;;;-0.30;99.90;;;;;;5011310;28;20566;-64
2021/04/07 01:14:31;;;;;;;2.67;2.47;;;-0.20;99.90;;;;;;5010923;28;20200;-64
2021/04/07 01:16:58;;;;;;;10.57;7.17;;;-0.20;99.90;;;;;;5011527;28;20173;-64
2021/04/07 01:19:25;;;;;;;10.07;4.73;;;-0.10;99.90;;;;;;5011200;28;20165;-64
2021/04/07 01:21:52;;;;;;;11.57;5.83;;;-0.10;99.90;;;;;;5009762;28;20180;-64
2021/04/07 01:24:19;;;;;;;8.83;6.47;;;0.00;99.90;;;;;;5011126;28;20196;-64
2021/04/07 01:26:45;;;;;;;6.67;5.13;;;0.00;99.90;;;;;;5011338;28;20176;-64
2021/04/07 01:29:11;;;;;;;8.73;5.87;;;0.00;99.90;;;;;;5010870;28;20172;-64
2021/04/07 01:31:48;;;;;;;9.07;6.07;;;0.00;99.90;;;;;;5010956;28;20184;-64
2021/04/07 01:34:30;;;;;;;6.07;4.80;;;0.10;99.90;;;;;;5010910;28;20606;-64
2021/04/07 01:36:56;;;;;;;7.17;4.77;;;0.10;99.90;;;;;;5011075;28;20239;-64
2021/04/07 01:39:24;;;;;;;7.63;4.40;;;0.00;99.90;;;;;;5011255;28;20692;-64
2021/04/07 01:41:50;;;;;;;8.40;5.10;;;0.10;99.90;;;;;;5010793;28;20184;-64
2021/04/07 01:44:17;;;;;;;9.23;5.57;;;0.10;99.90;;;;;;5010999;28;20211;-64
2021/04/07 01:46:44;;;;;;;9.57;5.60;;;0.10;99.90;;;;;;5011178;28;20176;-64
2021/04/07 01:49:10;;;;;;;5.83;4.63;;;0.10;99.90;;;;;;5010854;28;20176;-64
2021/04/07 01:51:36;;;;;;;6.10;4.50;;;0.20;99.90;;;;;;5021155;28;20176;-66
2021/04/07 01:54:07;;;;;;;9.27;5.40;;;0.10;99.90;;;;;;5021431;28;20211;-68
2021/04/07 01:56:47;;;;;;;10.33;4.17;;;0.20;99.90;;;;;;5023170;28;20172;-66
2021/04/07 01:59:16;;;;;;;9.60;5.40;;;0.20;99.90;;;;;;5023722;28;20599;-67
2021/04/07 02:01:42;;;;;;;8.93;4.87;;;0.20;99.90;;;;;;5023355;28;20194;-67
2021/04/07 02:04:08;;;;;;;11.00;5.07;;;0.30;99.90;;;;;;5024234;28;20203;-67
2021/04/07 02:06:33;;;;;;;8.37;4.67;;;0.30;99.90;;;;;;5022688;28;20184;-68
2021/04/07 02:08:59;;;;;;;7.07;4.17;;;0.20;99.90;;;;;;5022970;28;20184;-71
2021/04/07 02:11:25;;;;;;;8.20;5.00;;;0.20;99.90;;;;;;5023551;28;20215;-67
2021/04/07 02:13:52;;;;;;;7.27;4.10;;;0.30;99.90;;;;;;5022722;28;20219;-67
2021/04/07 02:16:18;;;;;;;4.83;3.93;;;0.30;99.90;;;;;;5023358;28;20177;-68
2021/04/07 02:18:44;;;;;;;5.37;4.73;;;0.30;99.90;;;;;;5023723;28;20175;-67
2021/04/07 02:21:10;;;;;;;6.47;3.97;;;0.30;99.90;;;;;;5023161;28;20262;-69
2021/04/07 02:23:37;;;;;;;8.03;4.93;;;0.40;99.90;;;;;;5022973;28;20204;-67
2021/04/07 02:26:06;;;;;;;9.57;6.23;;;0.40;99.90;;;;;;5023148;28;20176;-69
2021/04/07 02:28:36;;;;;;;6.40;4.63;;;0.50;99.90;;;;;;5022811;28;20184;-68
2021/04/07 02:31:02;;;;;;;9.20;5.63;;;0.50;99.90;;;;;;5003503;28;20185;-69
2021/04/07 02:33:28;;;;;;;10.70;5.57;;;0.50;99.90;;;;;;5020722;28;20208;-66
2021/04/07 02:35:54;;;;;;;7.93;4.27;;;0.50;99.90;;;;;;5023386;28;20172;-68
2021/04/07 02:38:20;;;;;;;11.43;6.90;;;0.50;99.90;;;;;;5022687;28;20182;-66
2021/04/07 02:40:45;;;;;;;10.57;6.20;;;0.50;99.90;;;;;;5022822;28;20195;-66
2021/04/07 02:43:11;;;;;;;7.80;5.93;;;0.50;99.90;;;;;;5022949;28;20220;-68
2021/04/07 02:45:37;;;;;;;11.83;5.40;;;0.50;99.90;;;;;;5021644;28;20188;-68
2021/04/07 02:48:03;;;;;;;9.60;7.23;;;0.50;99.90;;;;;;5021475;28;20195;-67
2021/04/07 02:50:29;;;;;;;14.57;7.80;;;0.60;99.90;;;;;;5022320;28;20183;-67
2021/04/07 02:52:54;;;;;;;5.33;4.60;;;0.50;99.90;;;;;;5022958;28;20204;-66
2021/04/07 02:55:20;;;;;;;10.30;7.57;;;0.50;99.90;;;;;;5025214;28;20172;-67
2021/04/07 02:57:46;;;;;;;12.73;6.30;;;0.50;99.90;;;;;;5024684;28;20207;-69
2021/04/07 03:00:12;;;;;;;12.83;7.30;;;0.50;99.90;;;;;;5024874;28;20527;-67
2021/04/07 03:02:38;;;;;;;9.77;5.93;;;0.60;99.90;;;;;;5004368;28;20177;-69
2021/04/07 03:05:05;;;;;;;12.70;7.47;;;0.50;99.90;;;;;;5019042;28;20242;-67
2021/04/07 03:07:31;;;;;;;13.13;8.40;;;0.40;99.90;;;;;;5024309;28;20176;-66
2021/04/07 03:09:57;;;;;;;11.17;7.87;;;0.40;99.90;;;;;;5023938;28;20187;-67
2021/04/07 03:12:22;;;;;;;16.07;9.40;;;0.40;99.90;;;;;;5024414;28;20219;-67
2021/04/07 03:14:48;;;;;;;15.27;8.23;;;0.40;99.90;;;;;;5022692;28;20212;-67
2021/04/07 03:17:14;;;;;;;9.23;6.87;;;0.50;99.90;;;;;;5023528;28;20172;-70
2021/04/07 03:19:40;;;;;;;11.37;8.30;;;0.50;99.90;;;;;;5023019;28;20580;-64
2021/04/07 03:22:06;;;;;;;16.23;9.90;;;0.50;99.90;;;;;;5020757;28;20553;-66
2021/04/07 03:24:32;;;;;;;14.90;9.50;;;0.50;99.90;;;;;;5021632;28;20203;-67
2021/04/07 03:26:58;;;;;;;13.83;9.53;;;0.50;99.90;;;;;;5020641;28;20260;-66
2021/04/07 03:29:24;;;;;;;16.30;10.00;;;0.50;99.90;;;;;;5021856;28;20176;-67
2021/04/07 03:31:51;;;;;;;21.50;10.60;;;0.50;99.90;;;;;;5020770;28;20242;-68
2021/04/07 03:34:16;;;;;;;10.67;7.70;;;0.50;99.90;;;;;;5019118;28;20212;-67
2021/04/07 03:36:44;;;;;;;16.47;10.50;;;0.50;99.90;;;;;;5020684;28;20191;-70
2021/04/07 03:39:09;;;;;;;9.57;7.63;;;0.50;99.90;;;;;;5018982;28;20263;-66
2021/04/07 03:41:36;;;;;;;18.90;10.27;;;0.50;99.90;;;;;;5019293;28;20203;-67
2021/04/07 03:44:02;;;;;;;13.50;8.87;;;0.50;99.90;;;;;;5019547;28;20235;-67
2021/04/07 03:46:27;;;;;;;14.10;9.07;;;0.60;99.90;;;;;;5018106;28;20187;-68
2021/04/07 03:48:53;;;;;;;8.13;7.00;;;0.60;99.90;;;;;;5019384;28;20243;-66
2021/04/07 03:51:18;;;;;;;17.27;10.13;;;0.60;99.90;;;;;;5019114;28;20176;-65
2021/04/07 03:53:46;;;;;;;10.67;8.13;;;0.60;99.90;;;;;;5011802;28;20211;-65
2021/04/07 03:56:11;;;;;;;12.13;9.03;;;0.60;99.90;;;;;;5012547;28;20180;-65
2021/04/07 03:58:37;;;;;;;14.77;10.70;;;0.60;99.90;;;;;;5012416;28;20186;-65
2021/04/07 04:01:04;;;;;;;15.33;9.13;;;0.60;99.90;;;;;;5012067;28;20172;-65
2021/04/07 04:03:30;;;;;;;7.37;5.17;;;0.60;99.90;;;;;;5011934;28;20203;-65
2021/04/07 04:05:55;;;;;;;12.50;9.07;;;0.70;99.90;;;;;;5012211;28;20215;-65
2021/04/07 04:08:21;;;;;;;12.37;9.50;;;0.60;99.90;;;;;;5012161;28;20242;-65
2021/04/07 04:10:47;;;;;;;16.67;10.40;;;0.70;99.90;;;;;;5011761;28;20212;-65
2021/04/07 04:13:13;;;;;;;12.50;8.27;;;0.70;99.90;;;;;;5011952;28;20212;-65
2021/04/07 04:15:39;;;;;;;15.13;10.13;;;0.70;99.90;;;;;;5012047;28;20179;-65
2021/04/07 04:18:08;;;;;;;17.90;10.27;;;0.70;99.90;;;;;;5011590;28;20176;-65
2021/04/07 04:20:34;;;;;;;8.43;5.83;;;0.60;99.90;;;;;;5011602;28;20271;-65
2021/04/07 04:23:00;;;;;;;16.23;10.47;;;0.60;99.90;;;;;;5011748;28;20318;-65
2021/04/07 04:25:26;;;;;;;9.80;7.47;;;0.60;99.90;;;;;;5010636;28;20184;-65
2021/04/07 04:27:52;;;;;;;10.30;7.40;;;0.60;99.90;;;;;;5011880;28;20282;-65
2021/04/07 04:30:20;;;;;;;11.33;8.13;;;0.60;99.90;;;;;;5011592;28;20180;-65
2021/04/07 04:32:46;;;;;;;14.70;10.53;;;0.60;99.90;;;;;;5011643;28;20235;-65
2021/04/07 04:35:12;;;;;;;13.60;8.03;;;0.60;99.90;;;;;;5011884;28;20195;-65
2021/04/07 04:37:38;;;;;;;12.03;7.60;;;0.60;99.90;;;;;;5011631;28;20184;-65
2021/04/07 04:40:06;;;;;;;13.87;9.90;;;0.60;99.90;;;;;;5011502;28;20660;-65
2021/04/07 04:42:31;;;;;;;14.67;9.83;;;0.60;99.90;;;;;;5011486;28;20172;-65
2021/04/07 04:44:57;;;;;;;9.00;7.30;;;0.60;99.90;;;;;;5012062;28;20263;-65
2021/04/07 04:47:23;;;;;;;18.80;10.53;;;0.70;99.90;;;;;;5011584;28;20172;-65
2021/04/07 04:49:49;;;;;;;15.07;10.07;;;0.70;99.90;;;;;;5011104;28;20196;-65
2021/04/07 04:52:15;;;;;;;14.83;10.37;;;0.70;99.90;;;;;;5011644;28;20178;-65
2021/04/07 04:54:41;;;;;;;11.60;10.37;;;0.70;99.90;;;;;;5011425;28;20286;-64
2021/04/07 04:57:06;;;;;;;10.00;8.43;;;0.70;99.90;;;;;;5011431;28;20192;-64
2021/04/07 04:59:32;;;;;;;17.60;11.87;;;0.70;99.90;;;;;;5011512;28;20203;-64
2021/04/07 05:01:58;;;;;;;17.23;11.50;;;0.80;99.90;;;;;;5011043;28;20180;-64
2021/04/07 05:04:23;;;;;;;11.43;8.10;;;0.80;99.90;;;;;;5011494;28;20615;-64
2021/04/07 05:06:49;;;;;;;14.50;11.00;;;0.70;99.90;;;;;;5010969;28;20210;-64
2021/04/07 05:09:14;;;;;;;9.20;7.27;;;0.80;99.90;;;;;;5011622;28;20184;-64
2021/04/07 05:11:40;;;;;;;11.63;9.53;;;0.80;99.90;;;;;;5010853;28;20188;-64
2021/04/07 05:14:06;;;;;;;13.63;8.27;;;0.80;99.90;;;;;;5011097;28;20751;-64
2021/04/07 05:16:32;;;;;;;15.30;7.70;;;0.80;99.90;;;;;;5011161;28;20215;-64
2021/04/07 05:18:59;;;;;;;8.07;6.27;;;0.80;99.90;;;;;;5011536;28;20291;-64
2021/04/07 05:21:25;;;;;;;8.03;7.23;;;0.80;99.90;;;;;;5010895;28;20656;-64
2021/04/07 05:23:51;;;;;;;10.33;8.03;;;0.80;99.90;;;;;;5011239;28;20224;-64
2021/04/07 05:26:16;;;;;;;11.10;6.57;;;0.90;99.90;;;;;;5011065;28;20654;-64
2021/04/07 05:28:42;;;;;;;9.10;7.07;;;0.90;99.90;;;;;;5011198;28;20207;-64
2021/04/07 05:31:09;;;;;;;11.17;8.33;;;0.90;99.90;;;;;;5012211;28;20189;-64
2021/04/07 05:33:36;;;;;;;9.00;6.40;;;0.90;99.90;;;;;;5014555;28;20338;-64
2021/04/07 05:36:04;;;;;;;8.07;5.93;;;0.90;99.90;;;;;;5014836;28;20187;-64
2021/04/07 05:38:31;;;;;;;11.20;8.57;;;0.90;99.90;;;;;;5014905;28;20172;-64
2021/04/07 05:40:58;;;;;;;7.03;6.33;;;0.90;99.90;;;;;;5014518;28;20264;-64
2021/04/07 05:43:24;;;;;;;8.57;7.63;;;0.90;99.90;;;;;;5014738;28;20200;-64
2021/04/07 05:45:50;;;;;;;12.77;8.37;;;0.90;99.90;;;;;;5014600;28;20188;-64
2021/04/07 05:48:16;;;;;;;12.00;6.97;;;0.90;99.90;;;;;;5014686;28;20685;-64
2021/04/07 05:50:47;;;;;;;13.40;8.00;;;0.90;99.90;;;;;;5014151;28;20184;-64
2021/04/07 05:53:13;;;;;;;9.63;6.80;;;0.90;99.90;;;;;;5014695;28;20216;-64
2021/04/07 05:55:43;;;;;;;8.17;6.60;;;1.00;99.90;;;;;;5014334;28;20255;-64
2021/04/07 05:58:10;;;;;;;10.13;7.23;;;1.00;99.90;;;;;;5014468;28;20176;-64
2021/04/07 06:00:35;;;;;;;10.63;8.43;;;1.00;99.90;;;;;;5014168;28;20176;-64
2021/04/07 06:03:04;;;;;;;8.73;6.93;;;1.00;99.90;;;;;;5014503;28;20211;-64
2021/04/07 06:05:30;;;;;;;13.37;8.40;;;1.00;99.90;;;;;;5014137;28;20184;-65
2021/04/07 06:07:57;;;;;;;12.80;8.47;;;1.00;99.90;;;;;;5014273;28;20203;-64
2021/04/07 06:10:24;;;;;;;10.13;7.80;;;1.00;99.90;;;;;;5013872;28;20599;-64
2021/04/07 06:12:50;;;;;;;14.87;8.93;;;1.00;99.90;;;;;;5014092;28;20286;-65
2021/04/07 06:15:15;;;;;;;12.80;8.40;;;1.00;99.90;;;;;;5014039;28;20295;-64
2021/04/07 06:17:43;;;;;;;11.43;8.87;;;1.00;99.90;;;;;;5014166;28;20226;-64
2021/04/07 06:20:11;;;;;;;13.93;9.53;;;0.90;99.90;;;;;;5013492;28;20222;-64
2021/04/07 06:22:37;;;;;;;20.33;11.93;;;0.90;99.90;;;;;;5014017;28;20176;-65
2021/04/07 06:25:05;;;;;;;16.77;9.60;;;0.90;99.90;;;;;;4997347;28;20296;-64
2021/04/07 06:27:31;;;;;;;18.20;10.90;;;0.90;99.90;;;;;;5011527;28;20184;-65
2021/04/07 06:30:00;;;;;;;25.10;13.13;;;0.90;99.90;;;;;;5013597;28;20188;-65
2021/04/07 06:32:29;;;;;;;21.40;10.60;;;0.90;99.90;;;;;;5013824;28;20168;-65
2021/04/07 06:34:54;;;;;;;17.63;11.00;;;0.90;99.90;;;;;;5013414;28;20196;-65
2021/04/07 06:37:20;;;;;;;11.53;8.07;;;0.90;99.90;;;;;;5013565;28;20195;-65
2021/04/07 06:39:46;;;;;;;15.27;8.60;;;0.90;99.90;;;;;;5013062;28;20638;-64
2021/04/07 06:42:13;;;;;;;11.37;8.67;;;0.90;99.90;;;;;;5013117;28;20187;-64
2021/04/07 06:44:38;;;;;;;20.47;11.63;;;0.80;99.90;;;;;;5004824;28;20670;-65
2021/04/07 06:47:05;;;;;;;14.57;9.53;;;0.90;99.90;;;;;;4994027;28;20176;-65
2021/04/07 06:49:33;;;;;;;17.43;10.57;;;1.00;99.90;;;;;;5008055;28;20238;-65
2021/04/07 06:52:02;;;;;;;13.87;9.07;;;1.00;99.90;;;;;;5013194;28;20805;-65
2021/04/07 06:54:28;;;;;;;19.03;11.40;;;1.00;99.90;;;;;;5012699;28;20216;-65
2021/04/07 06:56:55;;;;;;;17.07;12.03;;;1.10;99.90;;;;;;5013457;28;20183;-65
2021/04/07 06:59:22;;;;;;;10.87;8.00;;;1.10;99.90;;;;;;5013425;28;20662;-64
2021/04/07 07:01:48;;;;;;;9.77;6.73;;;1.20;99.90;;;;;;5012508;28;20275;-65
2021/04/07 07:04:14;;;;;;;10.93;6.37;;;1.20;99.90;;;;;;5013158;28;20326;-65
2021/04/07 07:06:39;;;;;;;8.03;6.13;;;1.20;99.90;;;;;;5012713;28;20199;-64
2021/04/07 07:09:19;;;;;;;11.13;7.57;;;1.20;99.90;;;;;;5012916;28;20552;-64
2021/04/07 07:11:46;;;;;;;12.67;8.27;;;1.20;99.90;;;;;;5012714;28;20176;-64
2021/04/07 07:14:15;;;;;;;13.83;8.60;;;1.20;99.90;;;;;;5012526;28;20257;-64
2021/04/07 07:16:49;;;;;;;13.63;8.23;;;1.20;99.90;;;;;;5012839;28;20251;-64
2021/04/07 07:19:24;;;;;;;10.03;6.00;;;1.30;99.90;;;;;;5013089;28;20253;-65
2021/04/07 07:22:01;;;;;;;7.03;4.87;;;1.30;99.90;;;;;;5012523;28;20184;-65
2021/04/07 07:24:37;;;;;;;15.53;5.87;;;1.30;99.90;;;;;;5012671;28;20207;-65
2021/04/07 07:27:05;;;;;;;10.27;8.10;;;1.20;99.90;;;;;;5013109;28;20638;-65
2021/04/07 07:29:34;;;;;;;13.73;8.13;;;1.20;99.90;;;;;;5012493;28;20195;-66
2021/04/07 07:32:03;;;;;;;9.30;7.13;;;1.40;99.90;;;;;;5012463;28;20172;-66
2021/04/07 07:34:30;;;;;;;9.10;7.10;;;1.50;99.90;;;;;;5012325;28;20219;-66
2021/04/07 07:36:57;;;;;;;3.30;1.93;;;1.40;99.90;;;;;;5012429;28;20545;-66
2021/04/07 07:39:27;;;;;;;1.20;1.20;;;1.30;99.90;;;;;;5012492;28;20193;-66
2021/04/07 07:42:00;;;;;;;1.00;1.00;;;1.20;99.90;;;;;;5012337;28;20176;-66
2021/04/07 07:44:27;;;;;;;1.10;1.10;;;1.20;99.90;;;;;;5010932;28;20216;-66
2021/04/07 07:47:14;;;;;;;1.10;1.10;;;1.20;99.90;;;;;;5012439;28;20181;-66
2021/04/07 07:49:40;;;;;;;1.10;1.10;;;1.30;99.90;;;;;;5012109;28;20215;-66
2021/04/07 07:52:06;;;;;;;1.00;1.00;;;1.30;99.90;;;;;;5012113;28;20184;-66
2021/04/07 07:54:31;;;;;;;1.10;1.10;;;1.30;99.90;;;;;;5002950;28;20215;-66
2021/04/07 07:56:57;;;;;;;1.20;1.20;;;1.20;99.90;;;;;;5012064;28;20180;-66
2021/04/07 07:59:31;;;;;;;1.00;1.00;;;1.20;99.90;;;;;;5011472;28;20226;-66
2021/04/07 08:01:57;;;;;;;1.10;1.10;;;1.30;99.90;;;;;;5011627;28;20176;-66
2021/04/07 08:04:24;;;;;;;1.40;1.40;;;1.50;99.90;;;;;;5011620;28;20560;-66
2021/04/07 08:06:50;;;;;;;1.00;1.00;;;1.60;99.90;;;;;;5011899;28;20215;-66
2021/04/07 08:09:16;;;;;;;1.10;1.10;;;1.70;99.90;;;;;;5012598;28;20184;-66
2021/04/07 08:11:45;;;;;;;1.10;1.10;;;1.80;99.90;;;;;;5011386;28;20190;-66
2021/04/07 08:14:15;;;;;;;8.87;5.37;;;2.20;99.90;;;;;;5011717;28;20590;-66
2021/04/07 08:16:43;;;;;;;6.90;4.87;;;2.10;99.90;;;;;;5011343;28;20230;-66
2021/04/07 08:19:11;;;;;;;7.07;4.60;;;1.90;99.90;;;;;;5012007;28;20272;-66
2021/04/07 08:21:39;;;;;;;5.33;4.63;;;1.90;99.90;;;;;;5011207;28;20601;-65
2021/04/07 08:24:07;;;;;;;5.33;4.80;;;1.90;99.90;;;;;;5011386;28;20221;-65
2021/04/07 08:26:37;;;;;;;5.33;4.60;;;1.80;99.90;;;;;;5012088;28;20661;-66
2021/04/07 08:29:06;;;;;;;4.90;4.23;;;1.80;99.90;;;;;;5011653;28;20211;-66
2021/04/07 08:31:33;;;;;;;6.93;5.30;;;1.90;99.90;;;;;;5011641;28;20180;-65
2021/04/07 08:34:02;;;;;;;8.43;5.60;;;1.90;99.90;;;;;;5011673;28;20270;-65
2021/04/07 08:36:28;;;;;;;5.80;5.20;;;1.90;99.90;;;;;;4992129;28;20227;-66
2021/04/07 08:39:00;;;;;;;9.87;6.30;;;1.80;99.90;;;;;;4992025;28;20169;-66
2021/04/07 08:41:26;;;;;;;7.57;5.47;;;1.60;99.90;;;;;;5011190;28;20230;-65
2021/04/07 08:43:53;;;;;;;7.30;5.10;;;1.60;99.90;;;;;;5011510;28;20200;-65
2021/04/07 08:46:23;;;;;;;5.13;4.23;;;1.50;99.90;;;;;;5011406;28;20180;-65
2021/04/07 08:48:49;;;;;;;9.70;5.87;;;1.50;99.90;;;;;;5011559;28;20183;-65
2021/04/07 08:51:16;;;;;;;6.53;5.20;;;1.50;99.90;;;;;;5011133;28;20183;-65
2021/04/07 08:53:44;;;;;;;5.40;4.87;;;1.60;99.90;;;;;;5011276;28;20211;-65
2021/04/07 08:56:15;;;;;;;4.47;4.07;;;1.50;99.90;;;;;;5011346;28;20183;-65
2021/04/07 08:59:00;;;;;;;9.03;5.53;;;1.40;99.90;;;;;;5011462;28;20164;-65
2021/04/07 09:01:35;;;;;;;6.40;4.40;;;1.50;99.90;;;;;;5011098;28;20262;-65
2021/04/07 09:04:04;;;;;;;4.20;3.83;;;1.70;99.90;;;;;;5010922;28;20216;-65
2021/04/07 09:06:30;;;;;;;6.73;4.87;;;1.70;99.90;;;;;;5014626;28;20544;-65
2021/04/07 09:08:57;;;;;;;5.30;4.70;;;1.70;99.90;;;;;;5015182;28;20176;-65
2021/04/07 09:11:31;;;;;;;7.47;5.33;;;1.60;99.90;;;;;;5014778;28;20183;-65
2021/04/07 09:14:03;;;;;;;4.90;4.13;;;1.70;99.90;;;;;;5209885;22;20199;-65
2021/04/07 09:16:39;;;;;;;3.90;3.60;;;1.60;99.90;;;;;;4995349;28;20191;-65
2021/04/07 09:19:21;;;;;;;8.57;4.50;;;1.60;99.90;;;;;;4995630;28;20169;-65
2021/04/07 09:22:07;;;;;;;6.17;4.40;;;1.50;99.90;;;;;;4994886;28;20210;-65
2021/04/07 09:24:42;;;;;;;6.50;5.37;;;1.50;99.90;;;;;;4995285;28;20292;-66
2021/04/07 09:27:28;;;;;;;7.33;4.93;;;1.70;99.90;;;;;;4995600;28;20203;-66
2021/04/07 09:30:06;;;;;;;5.13;4.03;;;1.90;99.90;;;;;;4994637;28;20193;-66
2021/04/07 09:32:38;;;;;;;5.13;4.67;;;2.10;99.90;;;;;;4975736;28;20188;-65
2021/04/07 09:35:09;;;;;;;2.03;1.93;;;2.00;99.90;;;;;;4994564;28;20259;-65
2021/04/07 09:37:38;;;;;;;2.50;2.40;;;1.90;99.90;;;;;;4995226;28;20175;-66
2021/04/07 09:40:04;;;;;;;1.10;1.10;;;1.80;99.90;;;;;;4994826;28;20490;-66
2021/04/07 09:42:30;;;;;;;1.00;1.00;;;1.90;99.90;;;;;;4995179;28;20166;-65
2021/04/07 09:44:57;;;;;;;1.10;1.10;;;2.00;99.90;;;;;;4994892;28;20735;-66
2021/04/07 09:47:29;;;;;;;1.03;1.03;;;1.90;99.90;;;;;;4995329;28;20173;-66
2021/04/07 09:49:54;;;;;;;1.10;1.10;;;2.10;99.90;;;;;;4994408;28;20181;-66
2021/04/07 09:52:20;;;;;;;1.10;1.10;;;2.20;99.90;;;;;;4994911;28;20311;-67
2021/04/07 09:54:45;;;;;;;1.20;1.20;;;2.00;99.90;;;;;;4994541;28;20744;-65
2021/04/07 09:57:12;;;;;;;4.43;2.00;;;1.90;99.90;;;;;;4994950;28;20176;-66
2021/04/07 09:59:44;;;;;;;1.10;1.10;;;1.60;99.90;;;;;;4994596;28;20674;-67
2021/04/07 10:02:26;;;;;;;1.10;1.10;;;1.50;99.90;;;;;;4994053;28;20168;-66
2021/04/07 10:04:53;;;;;;;1.10;1.10;;;1.40;99.90;;;;;;4993332;28;20208;-66
2021/04/07 10:07:22;;;;;;;1.20;1.20;;;1.50;99.90;;;;;;4994825;28;20184;-67
2021/04/07 10:09:52;;;;;;;1.20;1.20;;;1.70;99.90;;;;;;4994296;28;20177;-66
2021/04/07 10:12:23;;;;;;;1.10;1.10;;;1.90;99.90;;;;;;4994580;28;20730;-66
2021/04/07 10:14:50;;;;;;;1.10;1.10;;;2.00;99.90;;;;;;4994203;28;20313;-67
2021/04/07 10:17:20;;;;;;;1.00;1.00;;;2.10;99.90;;;;;;4994264;28;20179;-66
2021/04/07 10:19:46;;;;;;;1.00;1.00;;;2.20;99.90;;;;;;4994045;28;20213;-66
2021/04/07 10:22:18;;;;;;;1.00;1.00;;;2.20;99.90;;;;;;4994325;28;20204;-67
2021/04/07 10:24:47;;;;;;;1.03;1.03;;;2.50;99.90;;;;;;4994105;28;20200;-66
2021/04/07 10:27:21;;;;;;;1.33;1.33;;;2.60;99.90;;;;;;4994553;28;20204;-66
2021/04/07 10:29:48;;;;;;;1.00;1.00;;;2.70;99.90;;;;;;4993873;28;20184;-66
2021/04/07 10:32:18;;;;;;;1.10;1.10;;;2.80;99.90;;;;;;4994235;28;20698;-66
2021/04/07 10:34:47;;;;;;;1.27;1.27;;;2.80;99.90;;;;;;4993818;28;20223;-67
2021/04/07 10:37:18;;;;;;;1.10;1.10;;;2.70;99.90;;;;;;4994086;28;20177;-67
2021/04/07 10:39:44;;;;;;;1.10;1.10;;;2.60;99.90;;;;;;4993801;28;20263;-66
2021/04/07 10:42:17;;;;;;;1.57;1.40;;;2.70;99.90;;;;;;4994005;28;20642;-65
2021/04/07 10:44:55;;;;;;;1.00;1.00;;;2.80;99.90;;;;;;4992441;28;20207;-66
2021/04/07 10:47:22;;;;;;;1.10;1.10;;;2.80;99.90;;;;;;4994164;28;20205;-66
2021/04/07 10:49:56;;;;;;;1.20;1.20;;;2.70;99.90;;;;;;4993417;28;20263;-67
2021/04/07 10:52:38;;;;;;;1.10;1.10;;;2.80;99.90;;;;;;4993895;28;20208;-66
2021/04/07 10:55:09;;;;;;;1.30;1.30;;;2.80;99.90;;;;;;4993648;28;20200;-66
2021/04/07 10:57:37;;;;;;;1.00;1.00;;;2.80;99.90;;;;;;4993879;28;20175;-67
2021/04/07 11:00:09;;;;;;;1.10;1.10;;;2.90;99.90;;;;;;4993366;28;20181;-66
2021/04/07 11:02:47;;;;;;;1.00;1.00;;;2.90;99.90;;;;;;4992819;28;20169;-67
2021/04/07 11:05:24;;;;;;;1.10;1.10;;;2.90;99.90;;;;;;4993503;28;20188;-66
2021/04/07 11:08:04;;;;;;;1.00;1.00;;;3.00;99.90;;;;;;4993453;28;20173;-66
2021/04/07 11:10:40;;;;;;;1.00;1.00;;;3.10;99.90;;;;;;4993033;28;20585;-66
2021/04/07 11:13:07;;;;;;;1.00;1.00;;;3.20;99.90;;;;;;4992888;28;20200;-66
2021/04/07 11:15:33;;;;;;;1.00;1.00;;;3.30;99.90;;;;;;4993016;28;20204;-66
2021/04/07 11:17:59;;;;;;;1.00;1.00;;;3.40;99.90;;;;;;4993487;28;20219;-66
2021/04/07 11:20:27;;;;;;;1.00;1.00;;;3.50;99.90;;;;;;4992665;28;20181;-66
2021/04/07 11:22:53;;;;;;;0.90;0.90;;;3.60;99.90;;;;;;4993261;28;20188;-66
2021/04/07 11:25:20;;;;;;;2.13;1.97;;;3.70;99.90;;;;;;4993389;28;20601;-67
2021/04/07 11:27:46;;;;;;;1.20;1.20;;;3.80;99.90;;;;;;4992660;28;20180;-66
2021/04/07 11:30:12;;;;;;;1.00;1.00;;;3.90;99.90;;;;;;4992453;28;20169;-65
2021/04/07 11:32:40;;;;;;;1.97;1.97;;;4.10;99.90;;;;;;4992829;28;20180;-65
2021/04/07 11:35:15;;;;;;;1.10;1.10;;;4.40;99.90;;;;;;4993147;28;20327;-66
2021/04/07 11:45:42;;;;;;;3.37;3.20;;;4.70;99.90;;;;;;4973332;28;20209;-65
2021/04/07 11:48:08;;;;;;;1.20;1.20;;;4.40;99.90;;;;;;4973624;28;20670;-67
2021/04/07 11:50:40;;;;;;;1.00;1.00;;;4.40;99.90;;;;;;5129418;27;20523;-65
2021/04/07 11:53:06;;;;;;;1.33;1.33;;;4.30;99.90;;;;;;5130060;27;20178;-66
2021/04/07 11:55:31;;;;;;;1.27;1.27;;;4.40;99.90;;;;;;5129485;27;20278;-64
2021/04/07 11:57:59;;;;;;;0.90;0.90;;;4.40;99.90;;;;;;5129755;27;20173;-64
2021/04/07 12:00:25;;;;;;;1.57;1.57;;;4.50;99.90;;;;;;5114878;27;20173;-65
2021/04/07 12:02:50;;;;;;;1.00;1.00;;;4.40;99.90;;;;;;5128960;27;20616;-67
2021/04/07 12:05:23;;;;;;;2.33;2.23;;;4.50;99.90;;;;;;5113676;27;20689;-67
2021/04/07 12:07:50;;;;;;;1.23;1.23;;;4.60;99.90;;;;;;5109559;28;20189;-67
2021/04/07 12:10:22;;;;;;;2.20;2.00;;;4.70;99.90;;;;;;5108568;28;20563;-67
2021/04/07 12:12:48;;;;;;;0.90;0.90;;;4.90;99.90;;;;;;5112490;28;20180;-66
2021/04/07 12:15:15;;;;;;;0.90;0.90;;;4.80;99.90;;;;;;5129466;27;20283;-66
2021/04/07 12:17:41;;;;;;;1.53;1.27;;;4.70;99.90;;;;;;5126691;27;21758;-64
2021/04/07 12:20:07;;;;;;;1.00;1.00;;;4.70;99.90;;;;;;5108435;28;20179;-64
2021/04/07 12:22:33;;;;;;;2.37;2.27;;;4.80;99.90;;;;;;5109010;28;20674;-64
2021/04/07 12:24:58;;;;;;;1.00;1.00;;;5.00;99.90;;;;;;5129319;27;20192;-65
2021/04/07 12:27:24;;;;;;;1.00;1.00;;;5.20;99.90;;;;;;5129199;27;20176;-64
2021/04/07 12:29:50;;;;;;;0.90;0.90;;;5.30;99.90;;;;;;5108949;27;20212;-66
2021/04/07 12:32:15;;;;;;;1.00;1.00;;;5.30;99.90;;;;;;5108432;28;20169;-66
2021/04/07 12:34:41;;;;;;;1.07;1.07;;;5.20;99.90;;;;;;5125911;28;20196;-66
2021/04/07 12:37:07;;;;;;;1.13;1.13;;;5.10;99.90;;;;;;5129120;27;20523;-67
2021/04/07 12:39:34;;;;;;;1.00;1.00;;;5.10;99.90;;;;;;5112827;27;20542;-66
2021/04/07 12:42:01;;;;;;;1.20;1.20;;;4.90;99.90;;;;;;5108208;28;20169;-66
2021/04/07 12:44:27;;;;;;;0.90;0.90;;;4.80;99.90;;;;;;5122670;28;20196;-66
2021/04/07 12:46:53;;;;;;;1.10;1.10;;;4.60;99.90;;;;;;5128850;27;20538;-66
2021/04/07 12:49:18;;;;;;;1.17;1.17;;;4.80;99.90;;;;;;5114835;27;20579;-66
2021/04/07 12:51:44;;;;;;;1.63;1.53;;;5.00;99.90;;;;;;5107869;28;20177;-66
2021/04/07 12:54:13;;;;;;;1.03;1.03;;;5.20;99.90;;;;;;5109305;28;20602;-66
2021/04/07 12:56:40;;;;;;;0.93;0.93;;;5.40;99.90;;;;;;5108156;28;20192;-64
2021/04/07 12:59:05;;;;;;;1.00;1.00;;;5.70;99.90;;;;;;5118228;28;20526;-66
2021/04/07 13:01:31;;;;;;;0.90;0.90;;;5.90;99.90;;;;;;5117555;27;20175;-65